createdAt,value
2022-10-16T22:00:09.465Z,13.1
2022-10-16T22:01:16.898Z,13
2022-10-16T22:02:25.026Z,13
2022-10-16T22:03:33.627Z,13
2022-10-16T22:04:41.549Z,13
2022-10-16T22:05:48.814Z,13
2022-10-16T22:06:56.986Z,13
2022-10-16T22:08:04.250Z,13
2022-10-16T22:09:11.511Z,12.9
2022-10-16T22:10:20.126Z,12.9
2022-10-16T22:11:28.055Z,12.9
2022-10-16T22:12:35.328Z,13
2022-10-16T22:13:42.599Z,12.9
2022-10-16T22:14:49.879Z,12.9
2022-10-16T22:15:57.839Z,12.9
2022-10-16T22:17:05.132Z,12.9
2022-10-16T22:18:13.747Z,12.9
2022-10-16T22:19:21.715Z,12.8
2022-10-16T22:20:28.978Z,12.8
2022-10-16T22:21:37.609Z,12.7
2022-10-16T22:22:45.174Z,12.7
2022-10-16T22:23:52.430Z,12.6
2022-10-16T22:25:00.363Z,12.6
2022-10-16T22:26:08.288Z,12.7
2022-10-16T22:27:15.559Z,12.7
2022-10-16T22:28:23.545Z,12.6
2022-10-16T22:29:31.544Z,12.6
2022-10-16T22:30:38.800Z,12.6
2022-10-16T22:31:46.121Z,12.6
2022-10-16T22:32:53.437Z,12.5
2022-10-16T22:34:01.382Z,12.5
2022-10-16T22:35:09.332Z,12.5
2022-10-16T22:36:17.262Z,12.5
2022-10-16T22:37:25.796Z,12.5
2022-10-16T22:38:34.102Z,12.5
2022-10-16T22:39:42.271Z,12.5
2022-10-16T22:40:49.528Z,12.5
2022-10-16T22:41:57.494Z,12.5
2022-10-16T22:43:04.758Z,12.4
2022-10-16T22:44:12.017Z,12.4
2022-10-16T22:45:19.277Z,12.4
2022-10-16T22:46:26.539Z,12.3
2022-10-16T22:47:33.843Z,12.4
2022-10-16T22:48:41.790Z,12.3
2022-10-16T22:49:49.054Z,12.3
2022-10-16T22:50:56.314Z,12.3
2022-10-16T22:52:04.283Z,12.3
2022-10-16T22:53:12.221Z,12.3
2022-10-16T22:54:20.166Z,12.3
2022-10-16T22:55:28.814Z,12.2
2022-10-16T22:56:36.108Z,12.2
2022-10-16T22:57:43.370Z,12.2
2022-10-16T22:58:51.306Z,12.2
2022-10-16T22:59:58.574Z,12.2
2022-10-16T23:01:05.838Z,12.2
2022-10-16T23:02:13.106Z,12.2
2022-10-16T23:03:20.615Z,12.1
2022-10-16T23:04:28.170Z,12.1
2022-10-16T23:05:35.434Z,12.1
2022-10-16T23:06:43.378Z,12.1
2022-10-16T23:07:51.349Z,12.1
2022-10-16T23:08:58.620Z,12.1
2022-10-16T23:10:07.204Z,12
2022-10-16T23:11:14.474Z,12
2022-10-16T23:12:21.947Z,12
2022-10-16T23:13:29.209Z,12
2022-10-16T23:14:36.470Z,12
2022-10-16T23:15:43.796Z,11.9
2022-10-16T23:16:51.259Z,12
2022-10-16T23:17:58.518Z,11.9
2022-10-16T23:19:06.837Z,11.9
2022-10-16T23:20:14.167Z,11.9
2022-10-16T23:21:22.802Z,11.9
2022-10-16T23:22:30.982Z,11.9
2022-10-16T23:23:38.578Z,12
2022-10-16T23:24:45.847Z,12
2022-10-16T23:25:53.776Z,12
2022-10-16T23:27:01.702Z,11.9
2022-10-16T23:28:09.107Z,11.9
2022-10-16T23:29:17.177Z,11.9
2022-10-16T23:30:24.441Z,11.9
2022-10-16T23:31:32.411Z,11.9
2022-10-16T23:32:39.680Z,11.9
2022-10-16T23:33:46.939Z,11.8
2022-10-16T23:34:55.207Z,11.8
2022-10-16T23:36:03.162Z,11.7
2022-10-16T23:37:11.199Z,11.7
2022-10-16T23:38:19.235Z,11.7
2022-10-16T23:39:26.704Z,11.6
2022-10-16T23:40:34.174Z,11.6
2022-10-16T23:41:41.443Z,11.7
2022-10-16T23:42:49.413Z,11.7
2022-10-16T23:43:56.688Z,11.6
2022-10-16T23:45:04.621Z,11.6
2022-10-16T23:46:12.066Z,11.6
2022-10-16T23:47:20.381Z,11.6
2022-10-16T23:48:28.920Z,11.6
2022-10-16T23:49:36.196Z,11.6
2022-10-16T23:50:43.625Z,11.6
2022-10-16T23:51:50.914Z,11.5
